Time;durP1;ratioP1;P1;durP2;ratioP2;P2;SDS_P1;SDS_P2;PMS_P1;PMS_P2;Temp;Humidity;BMP_temperature;BMP_pressure;BME280_temperature;BME280_humidity;BME280_pressure;Samples;Min_cycle;Max_cycle;Signal;HPM_P1;HPM_P2
2021/04/11 00:00:07;;;;;;;16.25;9.82;;;6.20;99.90;;;;;;6131587;23;20096;-88
2021/04/11 00:02:34;;;;;;;18.25;10.82;;;6.20;99.90;;;;;;6130145;23;20096;-87
2021/04/11 00:05:00;;;;;;;17.73;9.98;;;6.20;99.90;;;;;;6131259;23;20021;-88
2021/04/11 00:07:27;;;;;;;17.38;10.43;;;6.20;99.90;;;;;;6130736;23;20030;-88
2021/04/11 00:09:53;;;;;;;15.45;9.35;;;6.20;99.90;;;;;;6107631;23;20105;-88
2021/04/11 00:12:20;;;;;;;13.65;9.13;;;6.20;99.90;;;;;;6104779;23;20022;-88
2021/04/11 00:14:46;;;;;;;14.65;8.70;;;6.20;99.90;;;;;;6124615;23;20018;-88
2021/04/11 00:17:13;;;;;;;12.95;7.88;;;6.20;99.90;;;;;;6101984;23;20303;-88
2021/04/11 00:19:39;;;;;;;11.80;7.53;;;6.20;99.90;;;;;;6101665;23;20018;-88
2021/04/11 00:22:06;;;;;;;13.23;7.07;;;6.20;99.90;;;;;;6100117;23;20052;-89
2021/04/11 00:24:33;;;;;;;13.10;6.80;;;6.20;99.90;;;;;;6100796;23;20512;-88
2021/04/11 00:27:00;;;;;;;12.13;6.45;;;6.20;99.90;;;;;;6101216;23;20521;-88
2021/04/11 00:29:26;;;;;;;15.48;6.90;;;6.20;99.90;;;;;;6100246;23;20042;-88
2021/04/11 00:31:53;;;;;;;12.93;5.53;;;6.20;99.90;;;;;;6126483;23;20025;-87
2021/04/11 00:34:19;;;;;;;10.82;5.72;;;6.20;99.90;;;;;;6100226;23;20017;-88
2021/04/11 00:36:46;;;;;;;10.35;5.20;;;6.20;99.90;;;;;;6100734;23;20097;-88
2021/04/11 00:39:12;;;;;;;11.27;5.45;;;6.20;99.90;;;;;;6100122;23;20028;-88
2021/04/11 00:41:43;;;;;;;11.65;5.30;;;6.20;99.90;;;;;;6102772;23;20089;-88
2021/04/11 00:44:11;;;;;;;11.23;5.43;;;6.20;99.90;;;;;;6100679;23;20030;-88
2021/04/11 00:46:45;;;;;;;14.40;5.38;;;6.20;99.90;;;;;;6101126;23;20028;-88
2021/04/11 00:49:39;;;;;;;14.70;5.30;;;6.20;99.90;;;;;;6099225;23;20068;-88
2021/04/11 00:52:08;;;;;;;12.13;5.53;;;6.20;99.90;;;;;;6088794;23;20029;-88
2021/04/11 00:54:36;;;;;;;11.93;5.35;;;6.20;99.90;;;;;;6100814;23;20446;-88
2021/04/11 00:57:06;;;;;;;11.70;5.35;;;6.10;99.90;;;;;;6100320;23;20029;-88
2021/04/11 00:59:34;;;;;;;13.00;5.18;;;6.10;99.90;;;;;;6125790;23;20025;-88
2021/04/11 01:02:04;;;;;;;10.13;5.57;;;6.10;99.90;;;;;;6101249;23;20018;-88
2021/04/11 01:04:30;;;;;;;10.05;4.90;;;6.10;99.90;;;;;;6099978;23;20051;-88
2021/04/11 01:07:07;;;;;;;12.40;5.70;;;6.10;99.90;;;;;;6100213;23;20093;-88
2021/04/11 01:09:45;;;;;;;10.13;4.80;;;6.10;99.90;;;;;;6102069;23;20026;-88
2021/04/11 01:12:21;;;;;;;10.35;5.35;;;6.10;99.90;;;;;;6099927;23;20517;-88
2021/04/11 01:14:49;;;;;;;11.55;5.30;;;6.00;99.90;;;;;;6100747;23;20022;-88
2021/04/11 01:17:20;;;;;;;12.68;4.95;;;6.00;99.90;;;;;;6100527;23;20025;-88
2021/04/11 01:19:50;;;;;;;7.95;4.72;;;6.00;99.90;;;;;;6101089;23;20374;-88
2021/04/11 01:22:37;;;;;;;10.10;4.82;;;6.00;99.90;;;;;;6100343;23;20057;-88
2021/04/11 01:25:27;;;;;;;9.50;4.43;;;6.00;99.90;;;;;;6100047;23;20024;-89
2021/04/11 01:27:56;;;;;;;8.05;4.75;;;6.00;99.90;;;;;;6103788;23;20022;-88
2021/04/11 01:30:33;;;;;;;12.65;4.72;;;6.00;99.90;;;;;;6122377;23;20052;-88
2021/04/11 01:33:02;;;;;;;9.82;4.43;;;6.00;99.90;;;;;;6105614;23;20041;-88
2021/04/11 01:35:29;;;;;;;12.25;4.78;;;6.00;99.90;;;;;;6099483;23;20427;-88
2021/04/11 01:37:58;;;;;;;11.73;4.28;;;6.10;99.90;;;;;;6100646;23;20049;-88
2021/04/11 01:40:52;;;;;;;10.95;4.30;;;6.10;99.90;;;;;;6099618;23;20021;-89
2021/04/11 01:43:20;;;;;;;12.70;4.45;;;6.10;99.90;;;;;;6099562;23;20093;-88
2021/04/11 01:45:47;;;;;;;9.95;4.68;;;6.10;99.90;;;;;;6099959;23;20072;-88
2021/04/11 01:48:16;;;;;;;11.60;4.25;;;6.10;99.90;;;;;;6099855;23;20073;-88
2021/04/11 01:50:44;;;;;;;9.93;4.72;;;6.10;99.90;;;;;;6099707;23;20018;-88
2021/04/11 01:53:13;;;;;;;12.60;4.03;;;6.20;99.90;;;;;;6099324;23;20029;-88
2021/04/11 01:55:41;;;;;;;11.25;4.15;;;6.20;99.90;;;;;;6099913;23;20018;-88
2021/04/11 01:58:11;;;;;;;8.57;3.85;;;6.20;99.90;;;;;;6099447;23;20390;-88
2021/04/11 02:01:04;;;;;;;10.90;4.32;;;6.20;99.90;;;;;;6100508;23;20468;-88
2021/04/11 02:03:33;;;;;;;11.15;4.22;;;6.20;99.90;;;;;;6087706;23;20026;-88
2021/04/11 02:06:05;;;;;;;12.38;4.00;;;6.20;99.90;;;;;;6100146;23;20097;-88
2021/04/11 02:08:36;;;;;;;9.30;3.90;;;6.20;99.90;;;;;;6098356;23;20349;-88
2021/04/11 02:11:04;;;;;;;6.78;3.83;;;6.20;99.90;;;;;;6089564;23;20072;-88
2021/04/11 02:13:34;;;;;;;10.40;4.32;;;6.20;99.90;;;;;;6099323;23;20022;-88
2021/04/11 02:16:01;;;;;;;15.95;5.80;;;6.10;99.90;;;;;;6099716;23;20386;-89
2021/04/11 02:18:30;;;;;;;12.32;4.18;;;6.10;99.90;;;;;;6099083;23;20105;-88
2021/04/11 02:21:00;;;;;;;7.20;4.10;;;6.10;99.90;;;;;;6100522;23;20045;-88
2021/04/11 02:23:29;;;;;;;13.68;4.63;;;6.10;99.90;;;;;;6100480;23;20062;-88
2021/04/11 02:25:58;;;;;;;10.95;4.63;;;6.10;99.90;;;;;;6101295;23;20022;-87
2021/04/11 02:28:30;;;;;;;13.15;4.57;;;6.10;99.90;;;;;;6099755;23;20032;-88
2021/04/11 02:31:26;;;;;;;10.57;4.15;;;6.10;99.90;;;;;;6014994;23;20143;-89
2021/04/11 02:34:01;;;;;;;10.07;4.28;;;6.00;99.90;;;;;;6118588;23;20038;-88
2021/04/11 02:36:40;;;;;;;13.73;4.38;;;6.00;99.90;;;;;;6099561;23;20056;-88
2021/04/11 02:39:15;;;;;;;11.90;4.35;;;6.00;99.90;;;;;;6099791;23;20029;-88
2021/04/11 02:41:42;;;;;;;10.05;4.40;;;6.00;99.90;;;;;;6100392;23;20022;-88
2021/04/11 02:44:12;;;;;;;12.85;4.53;;;6.00;99.90;;;;;;6102076;23;20033;-87
2021/04/11 02:46:42;;;;;;;10.32;4.82;;;6.00;99.90;;;;;;6117163;23;20032;-88
2021/04/11 02:49:12;;;;;;;11.70;4.72;;;6.00;99.90;;;;;;6094744;23;20022;-88
2021/04/11 02:51:39;;;;;;;14.73;5.07;;;5.90;99.90;;;;;;6097589;23;20085;-88
2021/04/11 02:54:14;;;;;;;13.07;5.95;;;5.90;99.90;;;;;;6098691;23;20017;-88
2021/04/11 02:56:45;;;;;;;12.05;5.47;;;5.90;99.90;;;;;;6099751;23;20457;-88
2021/04/11 02:59:16;;;;;;;10.80;5.60;;;5.90;99.90;;;;;;6098811;23;20022;-88
2021/04/11 03:01:51;;;;;;;16.38;5.05;;;5.90;99.90;;;;;;6100056;23;20438;-88
2021/04/11 03:04:20;;;;;;;14.88;5.30;;;5.80;99.90;;;;;;6098810;23;20018;-88
2021/04/11 03:06:54;;;;;;;11.57;4.90;;;5.80;99.90;;;;;;6099914;23;20385;-88
2021/04/11 03:09:30;;;;;;;13.32;5.50;;;5.80;99.90;;;;;;6098487;23;20022;-88
2021/04/11 03:11:58;;;;;;;13.13;5.70;;;5.80;99.90;;;;;;6100014;23;20022;-87
2021/04/11 03:14:34;;;;;;;12.80;5.78;;;5.80;99.90;;;;;;6099820;23;20025;-88
2021/04/11 03:17:09;;;;;;;11.15;6.30;;;5.80;99.90;;;;;;6101183;23;20105;-87
2021/04/11 03:19:40;;;;;;;10.38;5.88;;;5.80;99.90;;;;;;6098458;23;20085;-87
2021/04/11 03:22:08;;;;;;;12.10;5.55;;;5.80;99.90;;;;;;6099185;23;20335;-89
2021/04/11 03:24:36;;;;;;;11.52;5.20;;;5.80;99.90;;;;;;6099841;23;20109;-88
2021/04/11 03:27:17;;;;;;;10.82;5.35;;;5.80;99.90;;;;;;6100160;23;20018;-87
2021/04/11 03:30:25;;;;;;;12.00;5.20;;;5.80;99.90;;;;;;6099051;23;20018;-88
2021/04/11 03:32:58;;;;;;;11.10;4.93;;;5.80;99.90;;;;;;5946930;24;20341;-87
2021/04/11 03:35:27;;;;;;;9.05;4.97;;;5.80;99.90;;;;;;5979805;23;20250;-87
2021/04/11 03:37:57;;;;;;;10.23;5.45;;;5.70;99.90;;;;;;5981527;23;20028;-88
2021/04/11 03:40:29;;;;;;;11.15;5.28;;;5.70;99.90;;;;;;5980412;23;20048;-88
2021/04/11 03:43:11;;;;;;;10.88;6.15;;;5.70;99.90;;;;;;5981023;23;20025;-87
2021/04/11 03:45:38;;;;;;;10.07;6.10;;;5.70;99.90;;;;;;5957305;24;20059;-87
2021/04/11 03:48:17;;;;;;;12.88;7.43;;;5.70;99.90;;;;;;5980524;23;20531;-88
2021/04/11 03:50:50;;;;;;;11.57;7.35;;;5.70;99.90;;;;;;5958316;24;20051;-87
2021/04/11 03:53:37;;;;;;;13.48;7.95;;;5.70;99.90;;;;;;5981039;23;20076;-88
2021/04/11 03:56:08;;;;;;;13.70;7.25;;;5.70;99.90;;;;;;5981458;23;20024;-88
2021/04/11 03:58:45;;;;;;;11.63;6.97;;;5.70;99.90;;;;;;5958723;24;20061;-88
2021/04/11 04:01:19;;;;;;;12.63;7.50;;;5.70;99.90;;;;;;5983463;23;20377;-88
2021/04/11 04:03:47;;;;;;;13.50;8.00;;;5.70;99.90;;;;;;6000808;23;20016;-88
2021/04/11 04:06:28;;;;;;;10.97;8.00;;;5.80;99.90;;;;;;5989360;23;20020;-88
2021/04/11 04:08:55;;;;;;;15.45;8.38;;;5.80;99.90;;;;;;6013726;23;20030;-88
2021/04/11 04:11:44;;;;;;;13.65;8.93;;;5.80;99.90;;;;;;6129915;23;20018;-87
2021/04/11 04:14:23;;;;;;;14.27;9.07;;;5.80;99.90;;;;;;6129509;23;20025;-88
2021/04/11 04:16:56;;;;;;;;;;;5.70;99.90;;;;;;6130977;23;20021;-88
2021/04/11 04:19:42;;;;;;;12.80;9.10;;;5.70;99.90;;;;;;6129741;23;19920;-88
2021/04/11 04:22:30;;;;;;;13.25;10.32;;;5.60;99.90;;;;;;6129947;23;20105;-88
2021/04/11 04:25:23;;;;;;;11.77;10.50;;;5.60;99.90;;;;;;6130122;23;20143;-87
2021/04/11 04:28:16;;;;;;;12.60;9.63;;;5.50;99.90;;;;;;6152737;23;20022;-88
2021/04/11 04:30:51;;;;;;;15.90;10.18;;;5.40;99.90;;;;;;6129374;23;20017;-88
2021/04/11 04:33:17;;;;;;;14.55;10.13;;;5.30;99.90;;;;;;6129580;23;20028;-87
2021/04/11 04:35:58;;;;;;;11.55;10.20;;;5.20;99.90;;;;;;6129702;23;20084;-88
2021/04/11 04:38:48;;;;;;;14.25;9.43;;;5.20;99.90;;;;;;6128177;23;20044;-88
2021/04/11 04:41:16;;;;;;;12.00;9.48;;;5.10;99.90;;;;;;6128682;23;20021;-88
2021/04/11 04:43:56;;;;;;;;;;;5.00;99.90;;;;;;6130331;23;20033;-88
2021/04/11 04:46:31;;;;;;;11.40;9.02;;;4.90;99.90;;;;;;6129549;23;19925;-88
2021/04/11 04:49:16;;;;;;;11.80;9.48;;;4.80;99.90;;;;;;6130049;23;20100;-88
2021/04/11 04:51:45;;;;;;;10.93;9.02;;;4.70;99.90;;;;;;6129475;23;20085;-88
2021/04/11 04:54:38;;;;;;;12.40;9.13;;;4.70;99.90;;;;;;6129442;23;20045;-88
2021/04/11 04:57:23;;;;;;;9.43;8.32;;;4.70;99.90;;;;;;6013810;23;20115;-88
2021/04/11 05:00:02;;;;;;;9.82;8.82;;;4.50;99.90;;;;;;6015291;23;20023;-88
2021/04/11 05:02:39;;;;;;;10.20;9.13;;;4.50;99.90;;;;;;6013092;23;20336;-87
2021/04/11 05:05:08;;;;;;;11.77;9.07;;;4.40;99.90;;;;;;6012806;23;20325;-88
2021/04/11 05:07:42;;;;;;;11.13;9.18;;;4.40;99.90;;;;;;6036948;23;20387;-88
2021/04/11 05:10:18;;;;;;;9.93;8.73;;;4.30;99.90;;;;;;6012718;23;20031;-88
2021/04/11 05:12:52;;;;;;;11.95;9.68;;;4.30;99.90;;;;;;6014108;23;20403;-87
2021/04/11 05:15:26;;;;;;;9.80;8.80;;;4.20;99.90;;;;;;6037412;23;20046;-88
2021/04/11 05:18:07;;;;;;;10.60;9.57;;;4.10;99.90;;;;;;6015395;23;20042;-88
2021/04/11 05:20:37;;;;;;;9.82;8.82;;;4.10;99.90;;;;;;6028287;23;20039;-86
2021/04/11 05:23:14;;;;;;;10.25;9.18;;;4.00;99.90;;;;;;6025740;23;20015;-88
2021/04/11 05:25:59;;;;;;;10.55;8.93;;;4.00;99.90;;;;;;6036065;23;20038;-87
2021/04/11 05:28:38;;;;;;;14.18;9.60;;;3.90;99.90;;;;;;6035400;23;20394;-87
2021/04/11 05:31:10;;;;;;;10.90;9.52;;;3.90;99.90;;;;;;6035894;23;20015;-88
2021/04/11 05:33:39;;;;;;;14.13;9.90;;;3.80;99.90;;;;;;6046909;23;20014;-87
2021/04/11 05:36:15;;;;;;;;;;;3.80;99.90;;;;;;6126073;23;20021;-87
2021/04/11 05:38:52;;;;;;;10.30;9.00;;;3.80;99.90;;;;;;6100732;23;19983;-89
2021/04/11 05:41:27;;;;;;;14.10;9.45;;;3.70;99.90;;;;;;6099999;23;20097;-89
2021/04/11 05:44:00;;;;;;;13.07;9.27;;;3.70;99.90;;;;;;6100292;23;20288;-88
2021/04/11 05:46:42;;;;;;;11.38;10.13;;;3.70;99.90;;;;;;6099255;23;20038;-88
2021/04/11 05:49:28;;;;;;;11.32;10.15;;;3.70;99.90;;;;;;6101422;23;20018;-89
2021/04/11 05:52:11;;;;;;;13.10;11.60;;;3.70;99.90;;;;;;6100998;23;20029;-88
2021/04/11 05:54:43;;;;;;;14.15;11.13;;;3.70;99.90;;;;;;6098711;23;20018;-89
2021/04/11 05:57:24;;;;;;;12.10;10.80;;;3.60;99.90;;;;;;6125119;23;20318;-89
2021/04/11 06:00:14;;;;;;;12.40;10.70;;;3.60;99.90;;;;;;6099844;23;20405;-89
2021/04/11 06:02:49;;;;;;;13.80;11.13;;;3.60;99.90;;;;;;6122182;23;20032;-88
2021/04/11 06:05:24;;;;;;;13.13;10.82;;;3.60;99.90;;;;;;6099035;23;20020;-88
2021/04/11 06:08:23;;;;;;;11.60;10.43;;;3.60;99.90;;;;;;6099739;23;20072;-88
2021/04/11 06:10:59;;;;;;;10.57;9.48;;;3.60;99.90;;;;;;6123054;23;20044;-88
2021/04/11 06:13:41;;;;;;;11.63;9.90;;;3.60;99.90;;;;;;6099253;23;20045;-89
2021/04/11 06:16:20;;;;;;;10.43;9.43;;;3.60;99.90;;;;;;6099247;23;20029;-89
2021/04/11 06:18:51;;;;;;;12.95;9.27;;;3.70;99.90;;;;;;6100706;23;20016;-88
2021/04/11 06:21:36;;;;;;;10.45;9.43;;;3.70;99.90;;;;;;6099812;23;20101;-88
2021/04/11 06:24:22;;;;;;;11.40;10.20;;;3.80;99.90;;;;;;6100186;23;20022;-88
2021/04/11 06:27:01;;;;;;;11.38;9.68;;;3.80;99.90;;;;;;6099608;23;20026;-87
2021/04/11 06:29:39;;;;;;;9.60;8.57;;;3.90;99.90;;;;;;6099998;23;20018;-88
2021/04/11 06:32:12;;;;;;;10.00;8.52;;;4.00;99.90;;;;;;6100303;23;20069;-87
2021/04/11 06:34:50;;;;;;;9.65;7.78;;;4.00;99.90;;;;;;6103602;23;20028;-88
2021/04/11 06:37:20;;;;;;;9.23;7.90;;;4.10;99.90;;;;;;6119331;23;20026;-87
2021/04/11 06:39:48;;;;;;;12.32;8.57;;;4.20;99.90;;;;;;6105707;23;20049;-86
2021/04/11 06:42:39;;;;;;;11.30;8.70;;;4.30;99.90;;;;;;6099709;23;20370;-87
2021/04/11 06:45:29;;;;;;;10.18;8.07;;;4.40;99.90;;;;;;6099038;23;20024;-87
2021/04/11 06:48:25;;;;;;;11.13;8.20;;;4.40;99.90;;;;;;6099533;23;20018;-88
2021/04/11 06:51:45;;;;;;;9.23;7.50;;;4.50;99.90;;;;;;6098579;23;20053;-88
2021/04/11 06:54:41;;;;;;;9.60;7.65;;;4.60;99.90;;;;;;5958972;23;20051;-89
2021/04/11 06:57:34;;;;;;;8.77;7.05;;;4.70;99.90;;;;;;6005800;23;20019;-86
2021/04/11 07:00:23;;;;;;;8.35;6.97;;;4.80;99.90;;;;;;6005082;23;20499;-88
2021/04/11 07:03:08;;;;;;;7.00;6.20;;;4.80;99.90;;;;;;5980167;23;20351;-87
2021/04/11 07:05:59;;;;;;;15.32;7.05;;;4.90;99.90;;;;;;5980870;23;20030;-88
2021/04/11 07:08:32;;;;;;;8.05;6.60;;;5.00;99.90;;;;;;5980670;23;20107;-87
2021/04/11 07:11:40;;;;;;;6.47;5.72;;;5.10;99.90;;;;;;6006037;23;20023;-88
2021/04/11 07:14:31;;;;;;;7.43;6.00;;;5.20;99.90;;;;;;5991474;23;20020;-89
2021/04/11 07:17:22;;;;;;;6.43;5.80;;;5.40;99.90;;;;;;6006036;23;20023;-88
2021/04/11 07:20:11;;;;;;;7.47;5.75;;;5.40;99.90;;;;;;5969602;23;20023;-88
2021/04/11 07:22:58;;;;;;;5.90;5.30;;;5.60;99.90;;;;;;6005117;23;20662;-88
2021/04/11 07:25:33;;;;;;;8.23;5.80;;;5.70;99.90;;;;;;6005059;23;20071;-88
2021/04/11 07:28:37;;;;;;;7.75;6.07;;;5.70;99.90;;;;;;6005765;23;20032;-88
2021/04/11 07:31:28;;;;;;;10.32;6.20;;;5.90;99.90;;;;;;6076787;23;20033;-88
2021/04/11 07:34:25;;;;;;;7.82;6.43;;;6.00;99.90;;;;;;6153202;23;20124;-87
2021/04/11 07:37:13;;;;;;;7.32;6.22;;;6.10;99.90;;;;;;6127234;23;20013;-88
2021/04/11 07:39:46;;;;;;;6.38;5.60;;;6.20;99.90;;;;;;6128852;23;20025;-87
2021/04/11 07:42:35;;;;;;;7.00;5.88;;;6.30;99.90;;;;;;6127545;23;20032;-87
2021/04/11 07:45:19;;;;;;;7.22;5.63;;;6.30;99.90;;;;;;6128282;23;20531;-86
2021/04/11 07:48:07;;;;;;;8.38;6.00;;;6.40;99.90;;;;;;6127418;23;20109;-87
2021/04/11 07:50:51;;;;;;;9.75;5.93;;;6.60;99.90;;;;;;6131119;23;20370;-86
2021/04/11 07:53:36;;;;;;;7.60;5.68;;;6.70;99.90;;;;;;6144422;23;20018;-87
2021/04/11 07:56:13;;;;;;;7.78;6.45;;;6.80;99.90;;;;;;6126850;23;20478;-86
2021/04/11 07:59:10;;;;;;;8.00;6.20;;;6.90;99.90;;;;;;6127170;23;20021;-86
2021/04/11 08:01:52;;;;;;;6.60;5.80;;;7.00;99.90;;;;;;6126565;23;20460;-86
2021/04/11 08:04:40;;;;;;;7.10;6.20;;;7.10;99.90;;;;;;6126338;23;20021;-87
2021/04/11 08:07:19;;;;;;;10.70;6.07;;;7.20;99.90;;;;;;6126715;23;20048;-86
2021/04/11 08:10:01;;;;;;;9.93;6.28;;;7.20;99.90;;;;;;6126845;23;20049;-86
2021/04/11 08:12:52;;;;;;;8.05;5.68;;;7.30;99.90;;;;;;6126537;23;20028;-87
2021/04/11 08:15:47;;;;;;;9.45;6.05;;;7.40;99.90;;;;;;6126316;23;20025;-86
2021/04/11 08:18:40;;;;;;;6.88;6.15;;;7.40;99.90;;;;;;6125532;23;20060;-86
2021/04/11 08:21:21;;;;;;;8.48;6.32;;;7.40;99.90;;;;;;6125991;23;20341;-86
2021/04/11 08:24:12;;;;;;;7.32;5.93;;;7.50;99.90;;;;;;6127267;23;20017;-86
2021/04/11 08:27:06;;;;;;;6.95;6.07;;;7.60;99.90;;;;;;6126744;23;20409;-86
2021/04/11 08:29:42;;;;;;;6.95;6.18;;;7.70;99.90;;;;;;6126228;23;20334;-86
2021/04/11 08:32:29;;;;;;;8.10;6.75;;;7.80;99.90;;;;;;6126677;23;20021;-87
2021/04/11 08:35:17;;;;;;;6.68;6.03;;;7.90;99.90;;;;;;6126958;23;20018;-87
2021/04/11 08:38:15;;;;;;;6.40;5.80;;;7.90;99.90;;;;;;6151917;23;20345;-87
2021/04/11 08:41:06;;;;;;;7.18;6.15;;;7.90;99.90;;;;;;6125266;23;20085;-87
2021/04/11 08:43:57;;;;;;;6.35;5.75;;;7.90;99.90;;;;;;6126397;23;20018;-87
2021/04/11 08:47:01;;;;;;;7.25;5.93;;;7.90;99.90;;;;;;6125718;23;20155;-87
2021/04/11 08:49:57;;;;;;;6.97;5.57;;;8.00;99.90;;;;;;6126420;23;20024;-86
2021/04/11 08:53:10;;;;;;;8.05;5.18;;;8.00;99.90;;;;;;6125335;23;20119;-87
2021/04/11 08:55:40;;;;;;;7.90;5.68;;;8.10;99.90;;;;;;5980965;23;20046;-87
2021/04/11 08:58:27;;;;;;;6.18;5.50;;;8.10;99.90;;;;;;5980964;23;20020;-87
2021/04/11 09:01:22;;;;;;;6.43;5.60;;;8.10;99.90;;;;;;5981553;23;20051;-86
2021/04/11 09:04:09;;;;;;;7.85;4.97;;;8.20;99.90;;;;;;5980657;23;20038;-87
2021/04/11 09:06:57;;;;;;;5.15;4.60;;;8.40;99.90;;;;;;6011295;23;20524;-87
2021/04/11 09:09:55;;;;;;;6.78;5.05;;;8.60;99.90;;;;;;5995349;23;23122;-87
2021/04/11 09:12:36;;;;;;;5.15;4.45;;;8.60;99.90;;;;;;5980567;23;20484;-87
2021/04/11 09:15:24;;;;;;;6.63;5.10;;;8.80;99.90;;;;;;5982219;23;20032;-87
2021/04/11 09:18:08;;;;;;;6.60;4.53;;;8.80;99.90;;;;;;6005234;23;20043;-87
2021/04/11 09:20:41;;;;;;;5.65;4.63;;;8.90;99.90;;;;;;5981587;23;20506;-83
2021/04/11 09:23:29;;;;;;;5.07;4.22;;;9.00;99.90;;;;;;5980947;23;20027;-86
2021/04/11 09:26:22;;;;;;;4.28;3.88;;;9.10;99.90;;;;;;5981303;23;20106;-87
2021/04/11 09:29:01;;;;;;;5.15;4.10;;;9.30;99.90;;;;;;5980304;23;20038;-87
2021/04/11 09:32:06;;;;;;;6.00;3.38;;;9.40;99.90;;;;;;6087615;23;20323;-85
2021/04/11 09:34:54;;;;;;;5.60;3.72;;;9.60;99.90;;;;;;6125060;23;20083;-88
2021/04/11 09:37:48;;;;;;;5.07;3.25;;;9.70;98.10;;;;;;6125036;23;20021;-89
2021/04/11 09:40:32;;;;;;;4.78;3.15;;;9.80;97.30;;;;;;6124984;23;20028;-88
2021/04/11 09:43:18;;;;;;;3.58;2.90;;;9.80;98.10;;;;;;6124842;23;20517;-88
2021/04/11 09:46:09;;;;;;;4.63;2.95;;;9.80;97.00;;;;;;6125013;23;20477;-88
2021/04/11 09:49:00;;;;;;;3.33;2.90;;;9.70;95.40;;;;;;6124584;23;20044;-88
2021/04/11 09:51:32;;;;;;;3.28;2.97;;;9.60;95.40;;;;;;6124945;23;20243;-88
2021/04/11 09:54:17;;;;;;;3.95;3.22;;;9.50;96.70;;;;;;6124994;23;20033;-88
2021/04/11 09:56:53;;;;;;;3.45;3.15;;;9.30;97.00;;;;;;6151013;23;20465;-87
2021/04/11 09:59:38;;;;;;;4.88;3.35;;;9.20;97.90;;;;;;6125057;23;20453;-88
2021/04/11 10:02:30;;;;;;;4.68;3.35;;;9.30;98.60;;;;;;6151208;23;20040;-87
2021/04/11 10:05:15;;;;;;;4.28;3.63;;;9.40;98.70;;;;;;6125467;23;20555;-86
2021/04/11 10:07:47;;;;;;;6.10;3.90;;;9.50;99.50;;;;;;6126917;23;20024;-87
2021/04/11 10:10:33;;;;;;;4.70;3.72;;;9.40;99.20;;;;;;6126156;23;20401;-87
2021/04/11 10:13:09;;;;;;;5.15;3.60;;;9.30;99.30;;;;;;6126666;23;20022;-87
2021/04/11 10:16:04;;;;;;;4.65;3.75;;;9.20;99.60;;;;;;6125031;23;20037;-87
2021/04/11 10:18:30;;;;;;;3.33;2.80;;;9.30;99.20;;;;;;6004001;23;20112;-87
2021/04/11 10:21:14;;;;;;;6.80;3.95;;;9.40;98.70;;;;;;5983056;23;20095;-86
2021/04/11 10:23:55;;;;;;;5.13;3.97;;;9.50;98.80;;;;;;6007543;23;20051;-86
2021/04/11 10:26:30;;;;;;;5.75;4.30;;;9.70;99.10;;;;;;5985620;23;20027;-86
2021/04/11 10:29:05;;;;;;;4.68;3.60;;;9.70;98.60;;;;;;5981252;23;20033;-87
2021/04/11 10:31:39;;;;;;;4.57;3.40;;;9.80;98.60;;;;;;5981490;23;20030;-86
2021/04/11 10:34:24;;;;;;;6.05;3.55;;;9.80;97.70;;;;;;5980643;23;20460;-86
2021/04/11 10:37:17;;;;;;;7.97;3.80;;;9.60;96.90;;;;;;5981803;23;20046;-86
2021/04/11 10:40:00;;;;;;;4.35;3.30;;;9.50;97.10;;;;;;5970301;23;20023;-86
2021/04/11 10:43:02;;;;;;;5.35;3.10;;;9.40;96.80;;;;;;5980705;23;20460;-87
2021/04/11 10:45:37;;;;;;;4.63;3.03;;;9.50;96.70;;;;;;5949411;24;20020;-87
2021/04/11 10:48:06;;;;;;;7.95;3.72;;;9.70;96.00;;;;;;5949243;24;20029;-86
2021/04/11 10:50:39;;;;;;;;;;;9.80;95.80;;;;;;5927701;24;20029;-87
2021/04/11 10:53:15;;;;;;;8.48;2.80;;;9.60;95.30;;;;;;5926466;24;19926;-87
2021/04/11 10:56:01;;;;;;;5.35;3.30;;;9.50;96.40;;;;;;5999826;23;20023;-86
2021/04/11 10:58:48;;;;;;;7.63;3.95;;;9.40;96.50;;;;;;6009706;23;20026;-87
2021/04/11 11:01:40;;;;;;;5.90;3.83;;;9.30;96.70;;;;;;6008707;23;20034;-86
2021/04/11 11:04:21;;;;;;;3.95;3.25;;;9.30;97.40;;;;;;5997525;23;20127;-82
2021/04/11 11:07:06;;;;;;;7.85;3.80;;;9.50;97.60;;;;;;6033485;23;20103;-82
2021/04/11 11:10:19;;;;;;;;;;;;;;;;;;;;;
2021/04/11 11:13:33;;;;;;;6.65;3.30;;;9.80;95.50;;;;;;5954276;23;20969;-94
2021/04/11 11:17:14;;;;;;;5.60;3.55;;;10.10;94.80;;;;;;5838107;24;20042;-92
2021/04/11 11:20:12;;;;;;;6.72;4.55;;;10.20;96.10;;;;;;5960548;23;20052;-88
2021/04/11 11:23:09;;;;;;;7.32;4.72;;;10.40;96.30;;;;;;6010060;23;20331;-92
2021/04/11 11:25:44;;;;;;;6.78;5.13;;;10.40;97.10;;;;;;5996313;23;20030;-84
2021/04/11 11:28:59;;;;;;;8.63;5.80;;;10.30;96.50;;;;;;6032415;23;20027;-85
2021/04/11 11:31:36;;;;;;;10.40;6.10;;;10.30;97.30;;;;;;6022063;23;20020;-93
2021/04/11 11:34:21;;;;;;;21.17;13.10;;;10.20;97.10;;;;;;6069694;23;20449;-87
2021/04/11 11:37:15;;;;;;;6.70;4.47;;;10.20;97.70;;;;;;6129467;23;20043;-85
2021/04/11 11:40:07;;;;;;;10.40;7.15;;;10.00;97.40;;;;;;6083956;23;20022;-93
2021/04/11 11:43:02;;;;;;;21.70;12.68;;;9.80;98.20;;;;;;6113068;23;20077;-91
2021/04/11 11:45:58;;;;;;;9.38;5.57;;;9.60;98.90;;;;;;6125684;23;20041;-92
2021/04/11 11:48:36;;;;;;;9.77;5.07;;;9.50;98.80;;;;;;6151149;23;20064;-89
2021/04/11 11:51:27;;;;;;;7.65;4.53;;;9.50;98.60;;;;;;6128251;23;20373;-88
2021/04/11 11:54:14;;;;;;;8.02;4.22;;;9.60;99.40;;;;;;6127719;23;20022;-89
2021/04/11 11:56:48;;;;;;;7.50;4.47;;;9.80;99.80;;;;;;5982349;23;20513;-88
2021/04/11 11:59:29;;;;;;;7.45;4.32;;;9.80;99.70;;;;;;5982191;23;20034;-89
2021/04/11 12:02:03;;;;;;;13.43;4.35;;;9.80;99.30;;;;;;5983776;23;20020;-88
2021/04/11 12:04:54;;;;;;;7.43;3.42;;;9.60;99.70;;;;;;5981790;23;20449;-88
2021/04/11 12:07:38;;;;;;;5.32;2.97;;;9.40;98.70;;;;;;5982358;23;20024;-88
2021/04/11 12:10:39;;;;;;;6.95;3.45;;;9.10;98.70;;;;;;5982476;23;20035;-87
2021/04/11 12:13:36;;;;;;;5.32;3.00;;;8.90;98.80;;;;;;5948250;24;20313;-87
2021/04/11 12:16:14;;;;;;;5.03;2.58;;;9.10;99.60;;;;;;5936714;24;20492;-88
2021/04/11 12:18:51;;;;;;;5.57;2.45;;;9.20;99.70;;;;;;5925257;24;20029;-88
2021/04/11 12:21:47;;;;;;;4.75;2.42;;;9.30;99.60;;;;;;5946364;24;20484;-89
2021/04/11 12:24:23;;;;;;;3.95;2.10;;;9.40;99.70;;;;;;5925490;24;20027;-89
2021/04/11 12:26:54;;;;;;;5.22;2.55;;;9.60;99.70;;;;;;5950294;24;20353;-88
2021/04/11 12:29:24;;;;;;;7.55;3.13;;;9.60;99.00;;;;;;5948404;24;20043;-89
2021/04/11 12:31:59;;;;;;;5.20;2.60;;;9.50;98.90;;;;;;5950100;24;20020;-88
2021/04/11 12:34:44;;;;;;;7.13;2.88;;;9.60;99.40;;;;;;5991047;23;20016;-89
2021/04/11 12:37:42;;;;;;;6.63;3.08;;;9.70;99.60;;;;;;5980796;23;20392;-89
2021/04/11 12:40:17;;;;;;;7.47;2.78;;;9.90;98.60;;;;;;6006214;23;20098;-89
2021/04/11 12:43:28;;;;;;;4.70;2.80;;;10.00;98.80;;;;;;5996748;23;20026;-88
2021/04/11 12:46:06;;;;;;;4.90;2.67;;;10.00;98.50;;;;;;5979308;23;20068;-88
2021/04/11 12:48:56;;;;;;;4.15;2.60;;;10.20;98.40;;;;;;6059261;23;20342;-89
2021/04/11 12:51:44;;;;;;;7.63;3.03;;;10.30;97.70;;;;;;6127942;23;20021;-89
2021/04/11 12:54:36;;;;;;;7.57;3.35;;;10.30;98.50;;;;;;6148040;23;20036;-89
2021/04/11 12:57:27;;;;;;;4.85;2.53;;;10.50;98.20;;;;;;6153485;23;20684;-89
2021/04/11 13:00:21;;;;;;;5.20;2.10;;;10.60;96.50;;;;;;6126542;23;20021;-89
2021/04/11 13:02:54;;;;;;;6.00;2.28;;;10.60;94.80;;;;;;6113480;23;20022;-89
2021/04/11 13:05:33;;;;;;;6.80;2.40;;;10.60;94.50;;;;;;6125960;23;20018;-89
2021/04/11 13:08:26;;;;;;;7.60;2.35;;;10.60;95.20;;;;;;6126327;23;20080;-88
2021/04/11 13:10:55;;;;;;;4.72;1.83;;;10.50;95.90;;;;;;5981987;23;20036;-88
2021/04/11 13:13:38;;;;;;;5.00;2.03;;;10.40;95.70;;;;;;6004540;23;20156;-89
2021/04/11 13:16:04;;;;;;;5.38;1.80;;;10.30;94.70;;;;;;6004433;23;20028;-89
2021/04/11 13:18:58;;;;;;;5.32;1.90;;;10.20;93.50;;;;;;6005528;23;20098;-89
2021/04/11 13:21:41;;;;;;;2.85;1.70;;;10.20;91.40;;;;;;6003439;23;20020;-89
2021/04/11 13:24:30;;;;;;;4.07;1.77;;;10.30;92.30;;;;;;6004322;23;20079;-89
2021/04/11 13:27:11;;;;;;;6.40;2.10;;;10.30;91.30;;;;;;6005810;23;20452;-89
2021/04/11 13:29:41;;;;;;;4.80;1.88;;;10.40;91.80;;;;;;6005370;23;20032;-89
2021/04/11 13:32:30;;;;;;;4.57;1.40;;;10.60;92.00;;;;;;6005242;23;20020;-89
2021/04/11 13:35:33;;;;;;;8.02;1.88;;;10.70;91.70;;;;;;6007652;23;20024;-89
2021/04/11 13:38:21;;;;;;;3.97;1.70;;;10.80;90.60;;;;;;5921400;24;20025;-89
2021/04/11 13:40:48;;;;;;;6.18;2.03;;;10.70;90.20;;;;;;5899351;24;20287;-89
2021/04/11 13:43:38;;;;;;;6.43;2.60;;;10.60;90.80;;;;;;5920136;24;20033;-89
2021/04/11 13:46:21;;;;;;;6.13;3.42;;;10.60;91.10;;;;;;5919911;24;20470;-89
2021/04/11 13:48:59;;;;;;;6.25;2.70;;;10.70;90.80;;;;;;6011643;23;20030;-88
2021/04/11 13:51:45;;;;;;;3.95;2.00;;;10.80;90.80;;;;;;6008733;23;20099;-89
2021/04/11 13:55:11;;;;;;;6.80;1.80;;;11.00;91.30;;;;;;6009157;23;20059;-88
2021/04/11 13:58:15;;;;;;;4.57;1.70;;;11.00;88.40;;;;;;5963222;24;20429;-94
2021/04/11 14:00:59;;;;;;;4.78;1.90;;;11.10;89.30;;;;;;5931926;24;20674;-91
2021/04/11 14:03:40;;;;;;;4.82;1.60;;;11.00;89.80;;;;;;6021929;23;20027;-89